createdAt,value
2023-02-09T00:02:18.166Z,75.95
2023-02-09T00:04:47.177Z,75.51
2023-02-09T00:07:15.875Z,75.41
2023-02-09T00:09:45.569Z,75.40
2023-02-09T00:12:32.643Z,75.29
2023-02-09T00:15:00.722Z,75.02
2023-02-09T00:17:29.479Z,75.20
2023-02-09T00:19:57.957Z,75.17
2023-02-09T00:22:26.162Z,75.31
2023-02-09T00:24:56.452Z,75.45
2023-02-09T00:27:25.480Z,75.33
2023-02-09T00:38:11.604Z,75.23
2023-02-09T00:40:39.869Z,75.79
2023-02-09T00:43:08.078Z,75.62
2023-02-09T00:45:36.701Z,75.42
2023-02-09T00:48:05.766Z,75.45
2023-02-09T00:50:34.796Z,75.97
2023-02-09T00:53:03.648Z,75.77
2023-02-09T00:55:31.755Z,76.35
2023-02-09T00:57:59.841Z,76.52
2023-02-09T01:00:28.302Z,76.92
2023-02-09T01:02:58.222Z,77.48
2023-02-09T01:05:26.300Z,77.46
2023-02-09T01:07:54.975Z,77.91
2023-02-09T01:10:23.747Z,77.47
2023-02-09T01:12:53.145Z,77.44
2023-02-09T01:15:21.179Z,77.71
2023-02-09T01:17:50.246Z,77.67
2023-02-09T01:20:19.275Z,77.44
2023-02-09T01:22:47.701Z,77.61
2023-02-09T01:25:15.705Z,77.41
2023-02-09T01:27:43.896Z,76.63
2023-02-09T01:30:13.191Z,76.75
2023-02-09T01:32:41.883Z,76.07
2023-02-09T01:35:10.566Z,76.28
2023-02-09T01:37:38.624Z,76.20
2023-02-09T01:40:07.857Z,76.50
2023-02-09T01:42:36.327Z,76.02
2023-02-09T01:45:15.081Z,76.29
2023-02-09T01:47:50.633Z,76.70
2023-02-09T01:50:20.301Z,76.14
2023-02-09T01:52:49.208Z,76.44
2023-02-09T01:55:19.539Z,76.75
2023-02-09T01:57:54.588Z,76.78
2023-02-09T02:00:22.890Z,76.89
2023-02-09T02:03:01.796Z,76.70
2023-02-09T02:05:29.947Z,76.98
2023-02-09T02:08:02.120Z,77.06
2023-02-09T02:10:30.742Z,77.24
2023-02-09T02:13:00.632Z,77.08
2023-02-09T02:15:50.759Z,76.74
2023-02-09T02:18:28.044Z,77.03
2023-02-09T02:21:13.551Z,76.77
2023-02-09T02:24:07.136Z,76.64
2023-02-09T02:26:43.995Z,76.71
2023-02-09T02:29:34.282Z,76.62
2023-02-09T02:32:24.365Z,76.80
2023-02-09T02:35:08.552Z,76.62
2023-02-09T02:37:51.768Z,76.51
2023-02-09T02:40:47.326Z,76.78
2023-02-09T02:43:47.622Z,76.38
2023-02-09T02:46:28.690Z,76.67
2023-02-09T02:49:01.212Z,76.69
2023-02-09T02:51:35.420Z,76.50
2023-02-09T02:54:06.309Z,76.58
2023-02-09T02:56:39.995Z,76.83
2023-02-09T02:59:10.693Z,77.10
2023-02-09T03:01:45.025Z,76.83
2023-02-09T03:04:13.129Z,76.88
2023-02-09T03:06:41.507Z,77.09
2023-02-09T03:09:09.616Z,76.80
2023-02-09T03:11:52.250Z,76.78
2023-02-09T03:14:28.455Z,76.66
2023-02-09T03:17:11.657Z,76.45
2023-02-09T03:20:14.044Z,76.44
2023-02-09T03:22:46.579Z,76.69
2023-02-09T03:25:18.089Z,76.36
2023-02-09T03:27:59.536Z,76.26
2023-02-09T03:30:28.425Z,75.93
2023-02-09T03:32:57.182Z,76.19
2023-02-09T03:35:27.884Z,75.82
2023-02-09T03:37:56.104Z,76.04
2023-02-09T03:40:24.034Z,75.83
2023-02-09T03:42:52.089Z,75.79
2023-02-09T03:45:20.030Z,75.69
2023-02-09T03:47:49.151Z,75.61
2023-02-09T03:50:17.923Z,75.70
2023-02-09T03:52:45.881Z,75.53
2023-02-09T03:55:14.098Z,75.11
2023-02-09T03:57:42.212Z,74.84
2023-02-09T04:00:11.013Z,74.89
2023-02-09T04:02:43.939Z,74.51
2023-02-09T04:05:12.099Z,74.75
2023-02-09T04:07:42.083Z,74.73
2023-02-09T04:10:10.393Z,74.84
2023-02-09T04:12:38.459Z,74.64
2023-02-09T04:15:09.284Z,73.96
2023-02-09T04:17:37.421Z,74.23
2023-02-09T04:20:05.746Z,74.01
2023-02-09T04:22:34.418Z,73.82
2023-02-09T04:25:02.894Z,73.51
2023-02-09T04:27:32.509Z,73.44
2023-02-09T04:30:00.624Z,73.34
2023-02-09T04:32:28.674Z,72.89
2023-02-09T04:34:58.183Z,72.68
2023-02-09T04:37:26.157Z,72.49
2023-02-09T04:39:54.078Z,72.32
2023-02-09T04:42:21.998Z,72.07
2023-02-09T04:44:49.913Z,72.33
2023-02-09T04:47:17.800Z,72.18
2023-02-09T04:49:46.021Z,71.93
2023-02-09T04:52:14.149Z,72.10
2023-02-09T04:54:42.110Z,72.24
2023-02-09T04:57:28.808Z,72.47
2023-02-09T04:59:57.037Z,72.81
2023-02-09T05:02:24.974Z,73.26
2023-02-09T05:04:53.611Z,73.82
2023-02-09T05:07:23.224Z,73.68
2023-02-09T05:09:51.758Z,74.10
2023-02-09T05:12:21.517Z,73.88
2023-02-09T05:14:49.597Z,74.44
2023-02-09T05:17:21.251Z,74.36
2023-02-09T05:19:49.630Z,74.69
2023-02-09T05:22:17.568Z,74.85
2023-02-09T05:24:46.179Z,75.04
2023-02-09T05:27:14.073Z,75.31
2023-02-09T05:29:42.133Z,75.49
2023-02-09T05:32:10.263Z,75.34
2023-02-09T05:34:39.647Z,75.48
2023-02-09T05:37:07.628Z,75.46
2023-02-09T05:39:35.976Z,75.56
2023-02-09T05:42:16.385Z,75.36
2023-02-09T05:44:45.558Z,75.42
2023-02-09T05:47:14.576Z,75.07
2023-02-09T05:49:42.752Z,75.34
2023-02-09T05:52:13.703Z,75.34
2023-02-09T05:54:42.270Z,75.06
2023-02-09T05:57:10.506Z,75.20
2023-02-09T05:59:38.753Z,74.86
2023-02-09T06:02:07.244Z,74.55
2023-02-09T06:04:35.519Z,74.62
2023-02-09T06:07:04.413Z,74.44
2023-02-09T06:09:32.597Z,74.34
2023-02-09T06:12:02.105Z,74.33
2023-02-09T06:14:30.780Z,74.72
2023-02-09T06:17:02.657Z,74.78
2023-02-09T06:19:31.512Z,74.85
2023-02-09T06:21:59.524Z,75.04
2023-02-09T06:24:28.847Z,75.51
2023-02-09T06:26:56.815Z,75.88
2023-02-09T06:29:24.883Z,76.13
2023-02-09T06:31:53.026Z,76.42
2023-02-09T06:34:21.052Z,76.47
2023-02-09T06:36:49.130Z,76.69
2023-02-09T06:39:17.064Z,76.76
2023-02-09T06:41:45.087Z,76.72
2023-02-09T06:44:13.713Z,77.09
2023-02-09T06:46:41.776Z,77.39
2023-02-09T06:49:10.190Z,77.63
2023-02-09T06:51:38.843Z,77.24
2023-02-09T06:54:07.020Z,77.42
2023-02-09T06:56:35.129Z,77.45
2023-02-09T06:59:03.412Z,77.18
2023-02-09T07:01:31.505Z,77.45
2023-02-09T07:03:59.771Z,77.61
2023-02-09T07:06:28.065Z,77.75
2023-02-09T07:08:57.420Z,77.49
2023-02-09T07:11:25.775Z,77.63
2023-02-09T07:13:54.513Z,77.73
2023-02-09T07:16:22.812Z,77.52
2023-02-09T07:18:50.947Z,77.35
2023-02-09T07:21:21.401Z,77.06
2023-02-09T07:23:50.251Z,77.17
2023-02-09T07:26:18.415Z,76.91
2023-02-09T07:28:47.112Z,76.83
2023-02-09T07:31:16.125Z,76.64
2023-02-09T07:33:48.382Z,76.60
2023-02-09T07:36:16.731Z,76.78
2023-02-09T07:38:44.882Z,76.83
2023-02-09T07:41:15.888Z,76.70
2023-02-09T07:43:44.104Z,76.65
2023-02-09T07:46:13.572Z,76.64
2023-02-09T07:48:41.610Z,76.47
2023-02-09T07:51:16.921Z,76.60
2023-02-09T07:53:45.798Z,76.48
2023-02-09T07:56:13.782Z,76.46
2023-02-09T07:58:41.890Z,76.43
2023-02-09T08:01:11.214Z,76.40
2023-02-09T08:03:40.802Z,76.10
2023-02-09T08:06:39.816Z,76.25
2023-02-09T08:09:10.692Z,76.11
2023-02-09T08:11:48.727Z,76.02
2023-02-09T08:14:28.431Z,75.86
2023-02-09T08:17:18.183Z,75.54
2023-02-09T08:20:14.454Z,75.53
2023-02-09T08:22:45.519Z,75.38
2023-02-09T08:25:19.397Z,75.12
2023-02-09T08:27:47.804Z,74.94
2023-02-09T08:30:20.144Z,74.75
2023-02-09T08:32:50.145Z,74.26
2023-02-09T08:35:18.260Z,74.02
2023-02-09T08:37:46.430Z,73.92
2023-02-09T08:40:15.299Z,73.49
2023-02-09T08:42:43.417Z,73.45
2023-02-09T08:45:12.500Z,73.04
2023-02-09T08:47:41.448Z,73.29
2023-02-09T08:50:10.975Z,73.13
2023-02-09T08:52:39.810Z,72.74
2023-02-09T08:55:09.078Z,72.64
2023-02-09T08:57:44.130Z,72.52
2023-02-09T09:00:14.988Z,72.15
2023-02-09T09:02:43.623Z,72.21
2023-02-09T09:05:12.907Z,72.14
2023-02-09T09:07:41.272Z,72.28
2023-02-09T09:10:14.017Z,71.69
2023-02-09T09:12:43.648Z,72.08
2023-02-09T09:15:11.794Z,71.77
2023-02-09T09:17:40.592Z,71.73
2023-02-09T09:20:09.406Z,71.25
2023-02-09T09:22:37.651Z,71.09
2023-02-09T09:25:07.204Z,70.69
2023-02-09T09:27:36.187Z,70.42
2023-02-09T09:30:04.796Z,70.53
2023-02-09T09:32:34.571Z,70.27
2023-02-09T09:35:03.650Z,69.51
2023-02-09T09:37:32.745Z,69.22
2023-02-09T09:40:01.964Z,68.90
2023-02-09T09:42:40.836Z,68.71
2023-02-09T09:45:14.793Z,68.52
2023-02-09T09:47:45.573Z,68.25
2023-02-09T09:50:36.995Z,67.69
2023-02-09T09:53:26.585Z,67.34
2023-02-09T09:56:01.485Z,67.13
2023-02-09T09:58:34.572Z,66.78
2023-02-09T10:01:07.601Z,66.03
2023-02-09T10:03:38.613Z,65.91
2023-02-09T10:06:33.512Z,65.65
2023-02-09T10:09:06.461Z,65.38
2023-02-09T10:11:44.572Z,65.04
2023-02-09T10:14:16.094Z,64.61
2023-02-09T10:16:45.888Z,64.04
2023-02-09T10:19:42.598Z,63.40
2023-02-09T10:22:14.139Z,63.33
2023-02-09T10:24:46.618Z,63.17
2023-02-09T10:27:29.451Z,62.91
2023-02-09T10:30:20.119Z,62.86
2023-02-09T10:32:50.025Z,62.64
2023-02-09T10:35:35.612Z,62.54
2023-02-09T10:38:13.169Z,61.90
2023-02-09T10:40:44.675Z,62.17
2023-02-09T10:43:28.015Z,61.66
2023-02-09T10:54:08.298Z,61.09
2023-02-09T10:56:42.687Z,60.37
2023-02-09T10:59:22.515Z,59.75
2023-02-09T11:01:56.375Z,60.03
2023-02-09T11:04:26.311Z,60.51
2023-02-09T11:07:01.805Z,60.45
2023-02-09T11:09:33.224Z,60.03
2023-02-09T11:12:01.638Z,60.12
2023-02-09T11:14:34.400Z,60.11
2023-02-09T11:17:37.474Z,59.66
2023-02-09T11:20:19.974Z,59.16
2023-02-09T11:23:04.634Z,58.67
2023-02-09T11:25:42.261Z,58.12
2023-02-09T11:28:45.297Z,57.76
2023-02-09T11:31:48.682Z,57.47
2023-02-09T11:34:56.031Z,56.97
2023-02-09T11:37:48.903Z,57.20
2023-02-09T11:40:43.267Z,57.10
2023-02-09T11:43:11.289Z,57.05
2023-02-09T11:45:46.931Z,57.06
2023-02-09T11:48:20.842Z,57.01
2023-02-09T11:51:16.504Z,56.88
2023-02-09T11:53:59.254Z,56.93
2023-02-09T11:56:28.447Z,57.17
2023-02-09T11:59:23.085Z,57.00
2023-02-09T12:02:02.224Z,56.53
2023-02-09T12:04:33.011Z,56.79
2023-02-09T12:07:03.255Z,56.44
2023-02-09T12:09:45.910Z,56.52
2023-02-09T12:12:37.712Z,56.09
2023-02-09T12:15:12.199Z,55.88
2023-02-09T12:18:21.743Z,55.12
2023-02-09T12:20:55.860Z,54.57
2023-02-09T12:23:37.720Z,54.47
2023-02-09T12:26:17.096Z,54.28
2023-02-09T12:29:07.920Z,54.64
2023-02-09T12:32:22.360Z,54.78
2023-02-09T12:34:52.540Z,55.13
2023-02-09T12:37:28.640Z,55.14
2023-02-09T12:40:07.087Z,54.96
2023-02-09T12:42:52.194Z,54.87
2023-02-09T12:45:33.964Z,55.17
2023-02-09T12:48:09.664Z,55.52
2023-02-09T12:50:51.808Z,55.47
2023-02-09T12:53:23.290Z,56.05
2023-02-09T12:56:12.648Z,55.83
2023-02-09T12:58:43.671Z,55.87
2023-02-09T13:01:13.937Z,55.86
2023-02-09T13:04:01.287Z,55.56
2023-02-09T13:06:47.019Z,55.41
2023-02-09T13:09:25.807Z,55.41
2023-02-09T13:12:10.002Z,55.52
2023-02-09T13:14:38.570Z,55.48
2023-02-09T13:17:20.070Z,54.71
2023-02-09T13:20:18.495Z,54.76
2023-02-09T13:22:53.508Z,54.51
2023-02-09T13:25:38.254Z,54.16
2023-02-09T13:28:18.094Z,54.14
2023-02-09T13:30:46.431Z,54.44
2023-02-09T13:33:18.186Z,54.49
2023-02-09T13:35:52.323Z,54.07
2023-02-09T13:38:21.659Z,53.98
2023-02-09T13:40:50.822Z,54.16
2023-02-09T13:43:30.496Z,53.92
2023-02-09T13:45:59.735Z,54.07
2023-02-09T13:48:36.710Z,53.94
2023-02-09T13:51:25.066Z,54.15
2023-02-09T13:54:00.852Z,54.28
2023-02-09T13:56:31.312Z,54.34
2023-02-09T13:58:59.748Z,54.46
2023-02-09T14:01:32.535Z,54.52
2023-02-09T14:04:03.988Z,54.46
2023-02-09T14:06:47.768Z,54.87
2023-02-09T14:09:31.327Z,54.97
2023-02-09T14:12:03.210Z,55.16
2023-02-09T14:14:54.498Z,55.42
2023-02-09T14:17:28.003Z,55.55
2023-02-09T14:19:57.465Z,55.72
2023-02-09T14:22:32.701Z,55.89
2023-02-09T14:25:00.944Z,55.89
2023-02-09T14:27:32.959Z,56.02
2023-02-09T14:30:01.425Z,56.27
2023-02-09T14:32:34.867Z,56.35
2023-02-09T14:35:25.454Z,56.42
2023-02-09T14:37:56.089Z,56.77
2023-02-09T14:40:28.273Z,57.03
2023-02-09T14:43:09.432Z,57.29
2023-02-09T14:45:40.293Z,57.39
2023-02-09T14:48:37.893Z,57.68
2023-02-09T14:51:12.960Z,57.79
2023-02-09T14:53:42.819Z,57.98
2023-02-09T14:56:28.301Z,58.23
2023-02-09T14:58:58.923Z,58.42
2023-02-09T15:01:27.112Z,58.55
2023-02-09T15:03:55.910Z,58.48
2023-02-09T15:06:27.067Z,58.83
2023-02-09T15:08:55.268Z,58.84
2023-02-09T15:11:43.075Z,59.06
2023-02-09T15:14:11.733Z,59.19
2023-02-09T15:16:39.846Z,59.37
2023-02-09T15:19:13.466Z,59.46
2023-02-09T15:21:41.522Z,59.59
2023-02-09T15:24:09.475Z,59.87
2023-02-09T15:26:37.601Z,59.73
2023-02-09T15:29:11.050Z,60.00
2023-02-09T15:31:40.710Z,59.99
2023-02-09T15:34:11.307Z,60.13
2023-02-09T15:36:39.478Z,60.27
2023-02-09T15:39:16.384Z,60.20
2023-02-09T15:42:04.018Z,60.47
2023-02-09T15:44:51.511Z,60.40
2023-02-09T15:47:38.246Z,60.48
2023-02-09T15:50:06.572Z,60.45
2023-02-09T15:52:34.904Z,60.56
2023-02-09T15:55:02.883Z,60.54
2023-02-09T15:57:31.707Z,60.77
2023-02-09T15:59:59.979Z,60.93
2023-02-09T16:02:28.189Z,60.99
2023-02-09T16:04:56.659Z,61.02
2023-02-09T16:07:25.949Z,61.05
2023-02-09T16:09:54.035Z,61.12
2023-02-09T16:12:25.794Z,60.98
2023-02-09T16:14:54.107Z,61.19
2023-02-09T16:17:22.142Z,61.48
2023-02-09T16:19:50.126Z,61.76
2023-02-09T16:22:22.652Z,62.04
2023-02-09T16:24:50.664Z,62.19
2023-02-09T16:27:28.329Z,62.20
2023-02-09T16:29:57.439Z,62.17
2023-02-09T16:32:26.858Z,62.13
2023-02-09T16:34:57.725Z,62.10
2023-02-09T16:37:30.833Z,62.22
2023-02-09T16:40:00.962Z,62.29
2023-02-09T16:42:29.670Z,62.30
2023-02-09T16:44:57.878Z,62.17
2023-02-09T16:47:27.497Z,62.21
2023-02-09T16:49:58.836Z,62.24
2023-02-09T16:52:27.084Z,62.42
2023-02-09T16:54:56.700Z,62.68
2023-02-09T16:57:24.939Z,62.54
2023-02-09T16:59:53.112Z,62.41
2023-02-09T17:02:40.801Z,62.48
2023-02-09T17:05:17.499Z,62.37
2023-02-09T17:07:54.501Z,62.44
2023-02-09T17:10:26.313Z,62.38
2023-02-09T17:12:54.470Z,62.32
2023-02-09T17:15:31.176Z,62.39
2023-02-09T17:18:04.219Z,62.46
2023-02-09T17:20:37.263Z,62.20
2023-02-09T17:23:05.633Z,61.86
2023-02-09T17:25:33.807Z,61.92
2023-02-09T17:28:02.038Z,61.85
2023-02-09T17:30:31.378Z,61.83
2023-02-09T17:33:01.410Z,61.78
2023-02-09T17:35:58.001Z,61.76
2023-02-09T17:38:25.446Z,61.72
2023-02-09T17:40:54.873Z,61.73
2023-02-09T17:43:23.221Z,61.48
2023-02-09T17:45:51.466Z,61.55
2023-02-09T17:48:23.137Z,61.55
2023-02-09T17:50:52.908Z,61.64
2023-02-09T17:53:25.241Z,61.68
2023-02-09T17:55:56.335Z,61.83
2023-02-09T17:58:25.004Z,62.12
2023-02-09T18:00:54.283Z,62.40
2023-02-09T18:03:23.797Z,62.31
2023-02-09T18:05:54.144Z,62.53
2023-02-09T18:08:22.485Z,62.50
2023-02-09T18:10:50.585Z,62.71
2023-02-09T18:13:20.643Z,62.63
2023-02-09T18:15:48.995Z,62.83
2023-02-09T18:18:17.140Z,62.64
2023-02-09T18:20:45.348Z,62.67
2023-02-09T18:23:13.797Z,62.34
2023-02-09T18:25:41.980Z,62.48
2023-02-09T18:28:10.181Z,62.89
2023-02-09T18:30:38.899Z,62.73
2023-02-09T18:33:07.723Z,62.64
2023-02-09T18:35:40.757Z,62.71
2023-02-09T18:38:09.692Z,62.49
2023-02-09T18:40:39.189Z,62.55
2023-02-09T18:43:08.108Z,62.60
2023-02-09T18:45:36.597Z,62.69
2023-02-09T18:48:07.369Z,62.19
2023-02-09T18:50:35.614Z,62.63
2023-02-09T18:53:03.885Z,62.35
2023-02-09T18:55:32.829Z,62.32
2023-02-09T18:58:02.711Z,62.34
2023-02-09T19:00:32.067Z,62.46
2023-02-09T19:03:04.099Z,62.51
2023-02-09T19:05:36.004Z,62.37
2023-02-09T19:08:07.530Z,62.40
2023-02-09T19:10:36.296Z,62.39
2023-02-09T19:13:04.682Z,62.50
2023-02-09T19:15:34.273Z,62.75
2023-02-09T19:18:02.505Z,62.74
2023-02-09T19:20:31.203Z,62.68
2023-02-09T19:22:59.295Z,62.89
2023-02-09T19:25:28.614Z,62.85
2023-02-09T19:27:58.197Z,62.97
2023-02-09T19:30:28.637Z,63.13
2023-02-09T19:32:57.877Z,63.30
2023-02-09T19:35:25.987Z,63.02
2023-02-09T19:37:54.782Z,63.29
2023-02-09T19:40:41.335Z,63.49
2023-02-09T19:43:09.502Z,63.66
2023-02-09T19:45:38.673Z,63.51
2023-02-09T19:48:07.147Z,63.82
2023-02-09T19:50:39.069Z,63.78
2023-02-09T19:53:07.631Z,64.09
2023-02-09T19:55:36.032Z,64.21
2023-02-09T19:58:04.099Z,64.49
2023-02-09T20:00:32.538Z,64.64
2023-02-09T20:03:01.960Z,64.55
2023-02-09T20:05:30.167Z,64.62
2023-02-09T20:07:58.519Z,64.90
2023-02-09T20:10:27.482Z,64.94
2023-02-09T20:12:55.756Z,64.64
2023-02-09T20:15:24.277Z,64.72
2023-02-09T20:17:53.084Z,64.93
2023-02-09T20:20:21.460Z,64.72
2023-02-09T20:22:50.463Z,64.98
2023-02-09T20:25:19.028Z,64.77
2023-02-09T20:27:49.364Z,64.95
2023-02-09T20:30:17.529Z,65.21
2023-02-09T20:32:47.150Z,65.00
2023-02-09T20:35:16.585Z,65.39
2023-02-09T20:37:46.870Z,65.48
2023-02-09T20:40:16.732Z,65.13
2023-02-09T20:43:04.432Z,65.61
2023-02-09T20:45:51.318Z,65.63
2023-02-09T20:48:19.755Z,65.80
2023-02-09T20:50:49.688Z,66.21
2023-02-09T20:53:17.970Z,66.10
2023-02-09T20:55:46.469Z,66.47
2023-02-09T20:58:14.668Z,66.70
2023-02-09T21:00:43.526Z,66.71
2023-02-09T21:03:12.448Z,66.70
2023-02-09T21:05:41.236Z,66.90
2023-02-09T21:08:09.380Z,66.98
2023-02-09T21:10:38.575Z,67.05
2023-02-09T21:13:07.673Z,66.96
2023-02-09T21:15:39.409Z,67.00
2023-02-09T21:18:07.681Z,66.83
2023-02-09T21:20:37.153Z,66.70
2023-02-09T21:23:05.376Z,66.98
2023-02-09T21:25:33.815Z,66.72
2023-02-09T21:28:02.153Z,66.91
2023-02-09T21:30:31.607Z,66.67
2023-02-09T21:33:00.462Z,66.15
2023-02-09T21:35:28.685Z,66.17
2023-02-09T21:37:56.797Z,66.07
2023-02-09T21:40:26.126Z,65.53
2023-02-09T21:42:55.359Z,64.42
2023-02-09T21:45:23.804Z,64.26
2023-02-09T21:47:52.379Z,63.81
2023-02-09T21:50:22.201Z,63.86
2023-02-09T21:52:50.856Z,63.60
2023-02-09T21:55:19.171Z,63.22
2023-02-09T21:57:47.567Z,63.07
2023-02-09T22:00:16.049Z,62.51
2023-02-09T22:02:48.117Z,62.19
2023-02-09T22:05:17.490Z,61.93
2023-02-09T22:07:49.021Z,61.62
2023-02-09T22:10:20.156Z,61.43
2023-02-09T22:12:49.876Z,61.12
2023-02-09T22:15:19.199Z,60.52
2023-02-09T22:17:48.395Z,60.93
2023-02-09T22:20:18.419Z,60.72
2023-02-09T22:22:47.039Z,61.15
2023-02-09T22:25:16.290Z,61.10
2023-02-09T22:27:44.726Z,61.40
2023-02-09T22:30:13.542Z,61.35
2023-02-09T22:32:43.089Z,61.51
2023-02-09T22:35:11.633Z,61.04
2023-02-09T22:37:40.398Z,61.23
2023-02-09T22:40:10.385Z,61.61
2023-02-09T22:42:40.299Z,61.64
2023-02-09T22:45:10.103Z,61.76
2023-02-09T22:47:41.729Z,61.87
2023-02-09T22:50:12.374Z,61.82
2023-02-09T22:52:42.461Z,62.03
2023-02-09T22:55:13.129Z,62.12
2023-02-09T22:57:44.477Z,62.05
2023-02-09T23:00:15.659Z,62.43
2023-02-09T23:02:47.175Z,62.15
2023-02-09T23:05:20.217Z,62.46
2023-02-09T23:07:52.178Z,62.30
2023-02-09T23:10:23.682Z,62.35
2023-02-09T23:12:59.060Z,62.15
2023-02-09T23:15:30.183Z,62.31
2023-02-09T23:18:01.200Z,62.27
2023-02-09T23:20:33.151Z,62.34
2023-02-09T23:23:09.862Z,62.38
2023-02-09T23:25:41.139Z,62.21
2023-02-09T23:28:12.280Z,62.57
2023-02-09T23:30:45.086Z,62.55
2023-02-09T23:33:15.776Z,62.50
2023-02-09T23:35:45.731Z,62.61
2023-02-09T23:38:18.040Z,62.71
2023-02-09T23:48:56.556Z,62.84
2023-02-09T23:51:30.529Z,63.19
2023-02-09T23:54:00.021Z,62.93
2023-02-09T23:56:30.128Z,62.85
2023-02-09T23:58:58.212Z,62.38
